< < Back
Terminal Aerodrome Forecast


Current Version              Previous Versions:   1  2  3  4  5  6  7  8  9  

Terminal Aerodrome Forecast

352
FTUS42 KGSP 031739
TAFAVL
TAF
KAVL 031739Z 0318/0418 34006KT P6SM VCSH BKN035
     FM032100 33009KT P6SM BKN040
     FM032300 33010KT P6SM SCT040
     FM040700 33007KT P6SM BKN015
     FM041200 34007KT P6SM SCT030
     FM041600 35011KT P6SM SCT050=



Latest METAR

485
SAUS70 KWBC 041700 RRG
MTRAVL
METAR KAVL 041654Z 36008G18KT 10SM BKN050 15/03 A2978 RMK AO2 SLP069
T01500028


USA.gov is the U.S. government's official web portal to all federal, state and local government web resources and services.